createdAt,value
2019-05-05T00:00:16.412Z,38.40
2019-05-05T00:03:39.252Z,38.40
2019-05-05T00:06:44.544Z,38.80
2019-05-05T00:09:48.568Z,38.60
2019-05-05T00:13:10.067Z,39.20
2019-05-05T00:16:29.059Z,39.30
2019-05-05T00:19:34.041Z,38.90
2019-05-05T00:22:38.180Z,39.30
2019-05-05T00:25:42.070Z,39.30
2019-05-05T00:28:45.845Z,39.20
2019-05-05T00:31:49.545Z,39.60
2019-05-05T00:34:55.174Z,39.90
2019-05-05T00:37:59.305Z,40.70
2019-05-05T00:41:02.983Z,40.20
2019-05-05T00:44:06.958Z,40.90
2019-05-05T00:47:34.426Z,41.00
2019-05-05T00:50:38.166Z,40.90
2019-05-05T00:53:42.210Z,41.10
2019-05-05T00:56:46.088Z,41.20
2019-05-05T00:59:49.883Z,41.80
2019-05-05T01:02:54.266Z,42.00
2019-05-05T01:06:04.538Z,42.50
2019-05-05T01:09:10.598Z,42.60
2019-05-05T01:12:14.962Z,42.80
2019-05-05T01:15:18.927Z,42.60
2019-05-05T01:18:24.467Z,42.90
2019-05-05T01:21:28.034Z,42.80
2019-05-05T01:24:31.815Z,42.90
2019-05-05T01:27:35.599Z,42.90
2019-05-05T01:30:41.755Z,43.20
2019-05-05T01:33:58.425Z,43.50
2019-05-05T01:37:07.521Z,43.30
2019-05-05T01:40:37.377Z,44.10
2019-05-05T01:43:41.297Z,44.20
2019-05-05T01:46:45.161Z,44.90
2019-05-05T01:49:49.178Z,44.80
2019-05-05T01:52:52.858Z,45.40
2019-05-05T01:55:57.465Z,45.50
2019-05-05T01:59:01.656Z,45.60
2019-05-05T02:02:05.614Z,45.60
2019-05-05T02:05:09.412Z,45.80
2019-05-05T02:08:15.243Z,46.10
2019-05-05T02:11:18.632Z,46.30
2019-05-05T02:14:24.486Z,46.70
2019-05-05T02:17:27.889Z,46.30
2019-05-05T02:20:44.883Z,46.80
2019-05-05T02:23:48.361Z,47.10
2019-05-05T02:26:54.404Z,47.60
2019-05-05T02:30:09.870Z,47.90
2019-05-05T02:33:15.740Z,47.80
2019-05-05T02:36:19.595Z,47.70
2019-05-05T02:39:23.376Z,48.10
2019-05-05T02:42:27.686Z,48.10
2019-05-05T02:45:44.826Z,48.10
2019-05-05T02:48:51.049Z,48.10
2019-05-05T02:51:55.471Z,48.20
2019-05-05T02:54:59.764Z,48.50
2019-05-05T02:58:03.877Z,48.90
2019-05-05T03:01:30.334Z,49.00
2019-05-05T03:04:34.161Z,49.00
2019-05-05T03:07:38.355Z,49.20
2019-05-05T03:10:44.222Z,49.30
2019-05-05T03:13:50.707Z,49.60
2019-05-05T03:16:54.744Z,50.00
2019-05-05T03:19:58.714Z,50.20
2019-05-05T03:23:04.207Z,49.90
2019-05-05T03:26:08.354Z,51.50
2019-05-05T03:29:16.402Z,52.50
2019-05-05T03:32:20.559Z,52.50
2019-05-05T03:35:24.910Z,52.60
2019-05-05T03:38:28.662Z,52.50
2019-05-05T03:41:55.833Z,53.30
2019-05-05T03:45:10.306Z,52.90
2019-05-05T03:48:14.337Z,53.30
2019-05-05T03:51:21.008Z,53.50
2019-05-05T03:54:23.925Z,53.60
2019-05-05T03:57:28.131Z,54.20
2019-05-05T04:01:15.781Z,54.00
2019-05-05T04:04:24.582Z,53.90
2019-05-05T04:07:28.413Z,53.70
2019-05-05T04:10:33.524Z,53.70
2019-05-05T04:13:37.253Z,53.50
2019-05-05T04:16:46.980Z,53.50
2019-05-05T04:19:54.221Z,53.50
2019-05-05T04:22:58.497Z,53.40
2019-05-05T04:26:03.803Z,53.30
2019-05-05T04:29:07.577Z,52.40
2019-05-05T04:32:11.217Z,52.20
2019-05-05T04:35:15.004Z,52.00
2019-05-05T04:38:18.746Z,51.50
2019-05-05T04:41:24.422Z,51.40
2019-05-05T04:44:28.150Z,51.40
2019-05-05T04:47:34.431Z,51.20
2019-05-05T04:50:56.605Z,50.80
2019-05-05T04:54:18.050Z,50.20
2019-05-05T04:57:23.943Z,49.40
2019-05-05T05:00:28.297Z,47.70
2019-05-05T05:03:49.366Z,47.20
2019-05-05T05:06:54.721Z,46.70
2019-05-05T05:09:58.407Z,45.90
2019-05-05T05:13:02.139Z,45.10
2019-05-05T05:16:05.979Z,44.80
2019-05-05T05:19:09.662Z,43.20
2019-05-05T05:22:13.752Z,42.30
2019-05-05T05:25:17.485Z,41.60
2019-05-05T05:28:21.178Z,41.00
2019-05-05T05:31:24.917Z,40.90
2019-05-05T05:34:28.601Z,39.30
2019-05-05T05:37:34.112Z,39.20
2019-05-05T05:40:49.012Z,37.40
2019-05-05T05:44:03.592Z,36.80
2019-05-05T05:47:14.047Z,36.30
2019-05-05T05:50:36.925Z,35.40
2019-05-05T05:53:40.613Z,33.90
2019-05-05T05:56:44.758Z,34.30
2019-05-05T05:59:48.539Z,34.50
2019-05-05T06:02:54.417Z,32.00
2019-05-05T06:05:57.629Z,32.70
2019-05-05T06:09:01.395Z,31.10
2019-05-05T06:12:05.453Z,30.50
2019-05-05T06:15:09.507Z,31.20
2019-05-05T06:18:13.843Z,28.70
2019-05-05T06:21:17.914Z,28.90
2019-05-05T06:24:21.594Z,27.90
2019-05-05T06:27:25.290Z,28.10
2019-05-05T06:30:29.468Z,28.20
2019-05-05T06:33:34.721Z,27.70
2019-05-05T06:36:38.602Z,26.60
2019-05-05T06:39:44.027Z,27.40
2019-05-05T06:42:54.993Z,26.40
2019-05-05T06:46:00.253Z,27.00
2019-05-05T06:49:04.355Z,25.30
2019-05-05T06:52:08.206Z,25.20
2019-05-05T06:55:14.122Z,24.60
2019-05-05T06:58:17.907Z,24.30
2019-05-05T07:01:21.654Z,24.70
2019-05-05T07:04:25.601Z,24.80
2019-05-05T07:07:29.501Z,24.50
2019-05-05T07:10:33.890Z,24.50
2019-05-05T07:13:37.849Z,24.90
2019-05-05T07:16:43.709Z,24.90
2019-05-05T07:19:46.953Z,25.00
2019-05-05T07:23:01.233Z,26.00
2019-05-05T07:25:56.140Z,25.40
2019-05-05T07:29:00.103Z,25.20
2019-05-05T07:32:04.148Z,25.50
2019-05-05T07:35:14.640Z,25.30
2019-05-05T07:38:18.429Z,25.30
2019-05-05T07:41:23.481Z,24.30
2019-05-05T07:44:29.665Z,23.00
2019-05-05T07:47:34.243Z,23.30
2019-05-05T07:50:38.365Z,24.40
2019-05-05T07:53:44.026Z,25.20
2019-05-05T07:56:47.536Z,23.00
2019-05-05T07:59:51.261Z,23.40
2019-05-05T08:02:54.966Z,23.60
2019-05-05T08:05:58.845Z,22.90
2019-05-05T08:09:04.105Z,24.30
2019-05-05T08:12:08.106Z,23.90
2019-05-05T08:15:14.644Z,22.70
2019-05-05T08:18:27.362Z,22.60
2019-05-05T08:21:31.058Z,21.70
2019-05-05T08:25:01.421Z,22.10
2019-05-05T08:28:23.667Z,20.10
2019-05-05T08:31:47.546Z,19.70
2019-05-05T08:34:59.820Z,19.40
2019-05-05T08:37:56.917Z,19.90
2019-05-05T08:41:00.610Z,20.50
2019-05-05T08:44:04.889Z,19.60
2019-05-05T08:47:08.537Z,19.90
2019-05-05T08:50:13.722Z,18.70
2019-05-05T08:53:17.547Z,19.00
2019-05-05T08:56:21.201Z,18.60
2019-05-05T08:59:25.199Z,17.40
2019-05-05T09:02:29.194Z,17.10
2019-05-05T09:05:34.295Z,17.60
2019-05-05T09:08:38.362Z,17.10
2019-05-05T09:11:43.806Z,17.50
2019-05-05T09:14:47.614Z,13.90
2019-05-05T09:17:51.347Z,14.80
2019-05-05T09:20:55.393Z,15.10
2019-05-05T09:24:03.243Z,15.10
2019-05-05T09:27:18.670Z,16.90
2019-05-05T09:30:37.447Z,17.00
2019-05-05T09:33:41.112Z,18.40
2019-05-05T09:36:45.077Z,16.00
2019-05-05T09:39:49.061Z,16.70
2019-05-05T09:42:53.580Z,16.60
2019-05-05T09:45:58.467Z,16.40
2019-05-05T09:49:04.564Z,18.00
2019-05-05T09:52:07.868Z,18.30
2019-05-05T09:55:13.698Z,17.60
2019-05-05T09:58:17.257Z,17.40
2019-05-05T10:01:21.186Z,17.00
2019-05-05T10:04:27.206Z,15.40
2019-05-05T10:07:31.113Z,15.00
2019-05-05T10:10:34.762Z,15.20
2019-05-05T10:13:38.913Z,15.30
2019-05-05T10:16:42.701Z,14.70
2019-05-05T10:19:46.459Z,13.30
2019-05-05T10:22:50.158Z,14.60
2019-05-05T10:25:58.067Z,14.70
2019-05-05T10:29:04.093Z,15.90
2019-05-05T10:32:07.538Z,15.30
2019-05-05T10:35:11.481Z,14.00
2019-05-05T10:38:15.221Z,13.80
2019-05-05T10:41:18.935Z,12.80
2019-05-05T10:44:22.622Z,11.60
2019-05-05T10:47:26.279Z,10.70
2019-05-05T10:50:30.501Z,12.00
2019-05-05T10:53:34.330Z,12.40
2019-05-05T10:56:38.001Z,12.00
2019-05-05T10:59:43.553Z,12.70
2019-05-05T11:02:59.487Z,11.40
2019-05-05T11:06:04.534Z,11.30
2019-05-05T11:09:09.010Z,11.40
2019-05-05T11:12:14.327Z,11.70
2019-05-05T11:15:18.262Z,12.00
2019-05-05T11:18:23.796Z,12.90
2019-05-05T11:21:27.807Z,12.40
2019-05-05T11:24:31.785Z,11.50
2019-05-05T11:27:35.489Z,11.90
2019-05-05T11:30:42.062Z,11.70
2019-05-05T11:34:08.011Z,10.80
2019-05-05T11:37:14.764Z,11.30
2019-05-05T11:40:31.413Z,10.00
2019-05-05T11:43:35.093Z,10.10
2019-05-05T11:46:38.821Z,11.30
2019-05-05T11:49:44.146Z,11.50
2019-05-05T11:52:48.006Z,11.80
2019-05-05T11:55:51.709Z,10.90
2019-05-05T11:58:55.463Z,10.10
2019-05-05T12:01:59.254Z,11.60
2019-05-05T12:05:04.562Z,12.20
2019-05-05T12:08:08.345Z,12.10
2019-05-05T12:11:15.133Z,12.10
2019-05-05T12:14:20.991Z,12.10
2019-05-05T12:17:37.007Z,12.50
2019-05-05T12:20:41.250Z,12.10
2019-05-05T12:23:44.963Z,11.80
2019-05-05T12:27:06.486Z,12.10
2019-05-05T12:30:14.161Z,12.10
2019-05-05T12:33:17.989Z,10.70
2019-05-05T12:36:23.632Z,10.80
2019-05-05T12:39:27.164Z,11.40
2019-05-05T12:42:30.866Z,11.10
2019-05-05T12:45:37.012Z,10.30
2019-05-05T12:48:43.699Z,8.90
2019-05-05T12:51:47.414Z,9.80
2019-05-05T12:54:54.616Z,9.20
2019-05-05T12:57:58.499Z,9.70
2019-05-05T13:01:07.640Z,8.70
2019-05-05T13:04:11.424Z,9.00
2019-05-05T13:07:15.182Z,8.60
2019-05-05T13:10:21.187Z,8.60
2019-05-05T13:13:24.939Z,9.40
2019-05-05T13:16:28.905Z,8.90
2019-05-05T13:19:45.825Z,9.10
2019-05-05T13:23:07.782Z,9.00
2019-05-05T13:26:19.725Z,9.30
2019-05-05T13:29:24.609Z,9.50
2019-05-05T13:32:29.850Z,10.10
2019-05-05T13:35:34.046Z,9.90
2019-05-05T13:38:37.898Z,10.60
2019-05-05T13:41:41.586Z,10.50
2019-05-05T13:45:03.955Z,10.50
2019-05-05T13:48:07.747Z,10.60
2019-05-05T13:51:11.570Z,11.00
2019-05-05T13:54:15.337Z,11.10
2019-05-05T13:57:19.559Z,11.40
2019-05-05T14:00:25.950Z,11.30
2019-05-05T14:03:29.616Z,12.10
2019-05-05T14:06:33.521Z,11.80
2019-05-05T14:09:37.343Z,11.90
2019-05-05T14:12:41.041Z,11.90
2019-05-05T14:15:44.958Z,11.90
2019-05-05T14:18:48.613Z,11.90
2019-05-05T14:21:53.847Z,11.80
2019-05-05T14:25:04.336Z,11.90
2019-05-05T14:28:08.209Z,12.00
2019-05-05T14:31:15.338Z,12.00
2019-05-05T14:34:28.313Z,12.00
2019-05-05T14:37:36.030Z,12.00
2019-05-05T14:40:39.746Z,12.00
2019-05-05T14:43:43.846Z,12.00
2019-05-05T14:46:47.685Z,12.40
2019-05-05T14:49:53.836Z,12.00
2019-05-05T14:52:57.373Z,12.00
2019-05-05T14:56:01.058Z,12.20
2019-05-05T14:59:04.978Z,12.50
2019-05-05T15:02:08.650Z,12.30
2019-05-05T15:05:30.042Z,11.80
2019-05-05T15:08:54.515Z,12.10
2019-05-05T15:12:04.976Z,12.00
2019-05-05T15:15:09.114Z,12.20
2019-05-05T15:18:14.509Z,11.60
2019-05-05T15:21:18.442Z,11.90
2019-05-05T15:24:24.366Z,11.80
2019-05-05T15:27:27.728Z,10.90
2019-05-05T15:30:33.504Z,10.20
2019-05-05T15:33:37.414Z,9.90
2019-05-05T15:36:41.086Z,10.40
2019-05-05T15:39:44.781Z,10.50
2019-05-05T15:42:48.702Z,10.70
2019-05-05T15:45:53.971Z,9.80
2019-05-05T15:48:57.923Z,10.60
2019-05-05T15:52:01.642Z,10.90
2019-05-05T15:55:05.638Z,10.90
2019-05-05T15:58:09.571Z,11.10
2019-05-05T16:01:14.248Z,11.00
2019-05-05T16:04:18.041Z,11.50
2019-05-05T16:07:21.715Z,11.50
2019-05-05T16:10:25.679Z,11.50
2019-05-05T16:13:29.488Z,11.50
2019-05-05T16:16:56.041Z,11.70
2019-05-05T16:20:07.253Z,11.70
2019-05-05T16:23:15.861Z,11.10
2019-05-05T16:26:19.629Z,11.30
2019-05-05T16:29:23.743Z,10.60
2019-05-05T16:32:27.573Z,10.10
2019-05-05T16:35:31.280Z,11.20
2019-05-05T16:38:35.016Z,11.60
2019-05-05T16:41:38.701Z,11.10
2019-05-05T16:44:43.375Z,10.30
2019-05-05T16:47:47.141Z,10.20
2019-05-05T16:50:50.837Z,10.20
2019-05-05T16:53:56.631Z,11.20
2019-05-05T16:57:00.168Z,11.40
2019-05-05T17:00:04.286Z,11.30
2019-05-05T17:03:08.077Z,11.30
2019-05-05T17:06:13.489Z,11.60
2019-05-05T17:09:17.263Z,11.80
2019-05-05T17:12:21.009Z,12.10
2019-05-05T17:15:43.968Z,11.30
2019-05-05T17:18:59.469Z,11.30
2019-05-05T17:22:29.046Z,11.70
2019-05-05T17:25:34.248Z,12.50
2019-05-05T17:28:38.319Z,12.30
2019-05-05T17:31:44.229Z,12.60
2019-05-05T17:38:51.341Z,12.30
2019-05-05T17:42:17.261Z,12.00
2019-05-05T17:45:27.435Z,12.50
2019-05-05T17:48:38.414Z,12.30
2019-05-05T17:51:56.726Z,12.70
2019-05-05T17:55:04.582Z,12.80
2019-05-05T17:58:08.446Z,13.00
2019-05-05T18:01:12.099Z,13.20
2019-05-05T18:04:16.537Z,13.60
2019-05-05T18:07:29.181Z,13.50
2019-05-05T18:10:40.544Z,13.70
2019-05-05T18:13:48.308Z,13.80
2019-05-05T18:16:54.047Z,13.60
2019-05-05T18:19:57.445Z,13.80
2019-05-05T18:23:01.139Z,14.10
2019-05-05T18:26:04.906Z,14.00
2019-05-05T18:29:08.613Z,14.30
2019-05-05T18:32:13.893Z,14.10
2019-05-05T18:35:17.748Z,14.60
2019-05-05T18:38:23.441Z,14.70
2019-05-05T18:41:34.440Z,14.60
2019-05-05T18:44:41.614Z,14.70
2019-05-05T18:47:45.324Z,14.50
2019-05-05T18:50:49.110Z,14.30
2019-05-05T18:53:54.912Z,14.40
2019-05-05T18:56:58.403Z,15.50
2019-05-05T19:00:03.795Z,14.90
2019-05-05T19:03:17.698Z,15.10
2019-05-05T19:06:34.378Z,15.00
2019-05-05T19:09:50.359Z,15.50
2019-05-05T19:12:44.292Z,15.90
2019-05-05T19:15:57.591Z,16.00
2019-05-05T19:19:03.512Z,15.80
2019-05-05T19:22:09.790Z,15.80
2019-05-05T19:25:16.472Z,15.90
2019-05-05T19:28:20.175Z,15.80
2019-05-05T19:31:24.518Z,16.20
2019-05-05T19:34:28.186Z,16.10
2019-05-05T19:37:33.524Z,16.30
2019-05-05T19:40:38.158Z,17.20
2019-05-05T19:43:55.074Z,17.60
2019-05-05T19:47:05.855Z,17.60
2019-05-05T19:50:41.233Z,17.80
2019-05-05T19:53:45.173Z,18.20
2019-05-05T19:56:48.864Z,18.10
2019-05-05T19:59:54.323Z,18.00
2019-05-05T20:03:04.533Z,18.00
2019-05-05T20:06:04.842Z,18.20
2019-05-05T20:09:09.311Z,18.50
2019-05-05T20:12:14.741Z,18.60
2019-05-05T20:15:25.789Z,18.80
2019-05-05T20:18:29.569Z,18.90
2019-05-05T20:21:34.665Z,19.20
2019-05-05T20:24:38.739Z,19.70
2019-05-05T20:27:42.431Z,19.50
2019-05-05T20:30:46.437Z,20.20
2019-05-05T20:34:13.522Z,19.90
2019-05-05T20:37:19.622Z,20.00
2019-05-05T20:40:27.312Z,20.30
2019-05-05T20:43:30.998Z,20.90
2019-05-05T20:46:34.713Z,20.90
2019-05-05T20:49:38.655Z,21.20
2019-05-05T20:52:44.199Z,21.50
2019-05-05T20:55:48.108Z,20.90
2019-05-05T20:58:51.813Z,21.30
2019-05-05T21:01:55.538Z,21.20
2019-05-05T21:04:59.193Z,21.30
2019-05-05T21:08:04.749Z,22.10
2019-05-05T21:11:08.282Z,21.30
2019-05-05T21:14:12.162Z,21.30
2019-05-05T21:17:15.943Z,21.00
2019-05-05T21:20:20.096Z,21.20
2019-05-05T21:23:48.922Z,21.60
2019-05-05T21:26:55.961Z,21.20
2019-05-05T21:29:59.618Z,21.10
2019-05-05T21:33:04.447Z,21.60
2019-05-05T21:36:08.327Z,21.30
2019-05-05T21:39:14.661Z,21.10
2019-05-05T21:42:17.701Z,21.50
2019-05-05T21:45:21.665Z,20.90
2019-05-05T21:48:25.611Z,20.90
2019-05-05T21:51:36.058Z,20.90
2019-05-05T21:54:47.021Z,20.70
2019-05-05T21:58:05.386Z,20.90
2019-05-05T22:01:21.068Z,21.00
2019-05-05T22:04:25.018Z,21.20
2019-05-05T22:07:28.749Z,21.60
2019-05-05T22:10:34.325Z,21.40
2019-05-05T22:13:38.410Z,21.90
2019-05-05T22:16:42.089Z,21.80
2019-05-05T22:19:55.374Z,21.90
2019-05-05T22:22:59.496Z,22.40
2019-05-05T22:26:04.141Z,23.00
2019-05-05T22:29:08.268Z,23.10
2019-05-05T22:32:13.907Z,23.70
2019-05-05T22:35:17.435Z,23.60
2019-05-05T22:38:21.147Z,23.90
2019-05-05T22:41:24.873Z,24.00
2019-05-05T22:44:28.615Z,24.10
2019-05-05T22:47:34.353Z,24.20
2019-05-05T22:50:37.772Z,24.50
2019-05-05T22:53:43.823Z,25.00
2019-05-05T22:56:46.851Z,25.20
2019-05-05T22:59:50.541Z,25.00
2019-05-05T23:03:01.265Z,25.20
2019-05-05T23:06:08.793Z,25.00
2019-05-05T23:09:14.763Z,25.30
2019-05-05T23:12:18.782Z,25.60
2019-05-05T23:15:25.318Z,25.90
2019-05-05T23:18:28.119Z,26.20
2019-05-05T23:21:37.766Z,26.10
2019-05-05T23:24:47.327Z,26.10
2019-05-05T23:27:50.981Z,26.50
2019-05-05T23:30:54.814Z,26.80
2019-05-05T23:33:58.497Z,27.00
2019-05-05T23:37:04.222Z,27.00
2019-05-05T23:40:08.219Z,27.40
2019-05-05T23:43:13.825Z,27.40
2019-05-05T23:46:17.291Z,27.90
2019-05-05T23:49:20.978Z,28.00
2019-05-05T23:52:24.649Z,28.10
2019-05-05T23:55:28.618Z,28.30
2019-05-05T23:58:34.648Z,28.50
